Time;durP1;ratioP1;P1;durP2;ratioP2;P2;SDS_P1;SDS_P2;PMS_P1;PMS_P2;Temp;Humidity;BMP_temperature;BMP_pressure;BME280_temperature;BME280_humidity;BME280_pressure;Samples;Min_cycle;Max_cycle;Signal;HPM_P1;HPM_P2
2022/05/02 00:02:07;;;;;;;9.65;6.90;;;7.80;99.90;;;;;;4989727;28;20073;-70
2022/05/02 00:04:33;;;;;;;8.13;6.75;;;7.80;99.90;;;;;;4958228;28;20453;-69
2022/05/02 00:06:58;;;;;;;9.75;6.43;;;7.80;99.90;;;;;;4973791;28;20097;-70
2022/05/02 00:09:24;;;;;;;9.43;6.70;;;7.80;99.90;;;;;;4983533;28;20080;-69
2022/05/02 00:11:49;;;;;;;8.45;6.53;;;7.70;99.90;;;;;;4992853;28;20065;-69
2022/05/02 00:14:15;;;;;;;9.90;7.40;;;7.70;99.90;;;;;;4993075;28;20049;-71
2022/05/02 00:16:41;;;;;;;9.57;6.95;;;7.70;99.90;;;;;;4993048;28;20038;-70
2022/05/02 00:19:06;;;;;;;9.40;7.22;;;7.80;99.90;;;;;;4968849;28;20047;-71
2022/05/02 00:21:32;;;;;;;10.60;7.15;;;7.70;99.90;;;;;;4957359;28;20050;-71
2022/05/02 00:23:57;;;;;;;9.32;7.18;;;7.70;99.90;;;;;;4957659;28;20486;-71
2022/05/02 00:26:23;;;;;;;10.30;7.30;;;7.60;99.90;;;;;;4989946;28;20449;-70
2022/05/02 00:28:49;;;;;;;9.00;6.72;;;7.50;99.90;;;;;;4994710;28;20049;-70
2022/05/02 00:31:14;;;;;;;9.20;5.93;;;7.40;99.90;;;;;;4992724;28;20046;-70
2022/05/02 00:33:40;;;;;;;11.23;7.40;;;7.50;99.90;;;;;;4976778;28;20467;-70
2022/05/02 00:36:05;;;;;;;10.65;7.65;;;7.40;99.90;;;;;;4992950;28;20486;-71
2022/05/02 00:38:31;;;;;;;8.57;6.60;;;7.40;99.90;;;;;;4989507;28;20092;-70
2022/05/02 00:40:58;;;;;;;8.15;6.68;;;7.40;99.90;;;;;;4975104;28;20098;-71
2022/05/02 00:43:24;;;;;;;9.50;6.45;;;7.40;99.90;;;;;;4978406;28;20409;-70
2022/05/02 00:45:50;;;;;;;10.52;6.75;;;7.40;99.90;;;;;;4977725;28;20058;-70
2022/05/02 00:48:16;;;;;;;9.30;6.93;;;7.50;99.90;;;;;;4980664;28;20526;-71
2022/05/02 00:50:44;;;;;;;8.38;6.82;;;7.40;99.90;;;;;;4983417;28;20069;-70
2022/05/02 00:53:12;;;;;;;9.20;6.50;;;7.40;99.90;;;;;;4984040;28;20483;-70
2022/05/02 00:55:39;;;;;;;8.60;6.80;;;7.40;99.90;;;;;;4999847;28;20049;-70
2022/05/02 00:58:05;;;;;;;8.80;6.93;;;7.50;99.90;;;;;;4983934;28;20084;-70
2022/05/02 01:00:34;;;;;;;9.57;7.13;;;7.50;99.90;;;;;;4980430;28;20042;-70
2022/05/02 01:03:00;;;;;;;8.55;6.70;;;7.40;99.90;;;;;;4979936;28;20042;-70
2022/05/02 01:05:27;;;;;;;8.15;6.60;;;7.30;99.90;;;;;;4980238;28;20049;-71
2022/05/02 01:07:52;;;;;;;10.43;6.90;;;7.40;99.90;;;;;;4980205;28;20121;-70
2022/05/02 01:10:18;;;;;;;8.80;6.78;;;7.20;99.90;;;;;;4997010;28;20208;-71
2022/05/02 01:12:46;;;;;;;9.50;7.00;;;7.20;99.90;;;;;;4999505;28;20573;-70
2022/05/02 01:15:12;;;;;;;8.27;6.30;;;7.20;99.90;;;;;;4999638;28;20045;-70
2022/05/02 01:17:38;;;;;;;10.25;6.85;;;7.10;99.90;;;;;;4983374;28;20487;-71
2022/05/02 01:20:14;;;;;;;11.45;7.32;;;7.20;99.90;;;;;;4984201;28;20132;-70
2022/05/02 01:22:40;;;;;;;10.02;7.30;;;7.20;99.90;;;;;;4979572;28;20395;-70
2022/05/02 01:25:06;;;;;;;9.93;7.32;;;7.20;99.90;;;;;;4963742;28;20054;-71
2022/05/02 01:27:32;;;;;;;10.85;7.45;;;7.10;99.90;;;;;;4980010;28;20065;-70
2022/05/02 01:29:57;;;;;;;9.43;6.72;;;7.10;99.90;;;;;;4993331;28;20487;-71
2022/05/02 01:32:23;;;;;;;11.07;7.60;;;7.20;99.90;;;;;;4998785;28;20041;-70
2022/05/02 01:34:49;;;;;;;8.30;6.32;;;7.20;99.90;;;;;;4999304;28;20045;-70
2022/05/02 01:37:14;;;;;;;10.98;6.90;;;7.10;99.90;;;;;;4999135;28;20100;-70
2022/05/02 01:39:41;;;;;;;11.02;7.35;;;7.20;99.90;;;;;;4970910;28;20052;-71
2022/05/02 01:42:09;;;;;;;10.50;7.80;;;7.20;99.90;;;;;;4979339;28;20048;-70
2022/05/02 01:44:35;;;;;;;12.05;7.57;;;7.20;99.90;;;;;;4963390;28;20471;-69
2022/05/02 01:47:02;;;;;;;10.60;7.72;;;7.10;99.90;;;;;;4978893;28;20097;-69
2022/05/02 01:49:28;;;;;;;9.55;7.78;;;7.10;99.90;;;;;;4980455;28;20052;-70
2022/05/02 01:51:54;;;;;;;9.63;7.85;;;7.00;99.90;;;;;;4981667;28;20351;-70
2022/05/02 01:54:20;;;;;;;13.77;7.55;;;7.00;99.90;;;;;;4982759;28;20064;-70
2022/05/02 01:56:45;;;;;;;8.85;7.55;;;7.10;99.90;;;;;;4998828;28;20045;-70
2022/05/02 01:59:11;;;;;;;9.77;7.95;;;6.90;99.90;;;;;;4974863;28;20913;-70
2022/05/02 02:01:37;;;;;;;10.88;8.07;;;6.90;99.90;;;;;;4978763;28;20038;-71
2022/05/02 02:05:48;;;;;;;9.90;7.75;;;6.80;99.90;;;;;;4963048;28;20046;-71
2022/05/02 02:06:50;;;;;;;9.90;8.65;;;6.80;99.90;;;;;;4979557;28;20046;-70
2022/05/02 02:09:16;;;;;;;10.52;8.32;;;6.80;99.90;;;;;;4987109;28;20383;-69
2022/05/02 02:11:42;;;;;;;14.00;9.15;;;6.80;99.90;;;;;;4998299;28;20056;-69
2022/05/02 02:14:08;;;;;;;12.50;9.57;;;6.80;99.90;;;;;;4998469;28;20432;-70
2022/05/02 02:16:33;;;;;;;13.55;10.82;;;6.80;99.90;;;;;;4998293;28;20029;-70
2022/05/02 02:18:59;;;;;;;14.00;11.05;;;6.70;99.90;;;;;;4992722;28;20038;-70
2022/05/02 02:21:24;;;;;;;13.32;10.77;;;6.70;99.90;;;;;;4978908;28;20110;-69
2022/05/02 02:23:50;;;;;;;12.93;10.43;;;6.60;99.90;;;;;;4979167;28;20046;-70
2022/05/02 02:26:16;;;;;;;14.27;10.85;;;6.60;99.90;;;;;;4978905;28;20506;-69
2022/05/02 02:28:42;;;;;;;15.77;10.88;;;6.50;99.90;;;;;;4981747;28;20434;-70
2022/05/02 02:31:07;;;;;;;12.15;9.95;;;6.50;99.90;;;;;;4981505;28;20048;-71
2022/05/02 02:33:33;;;;;;;11.18;9.73;;;6.40;99.90;;;;;;4998056;28;20116;-70
2022/05/02 02:35:59;;;;;;;15.30;10.23;;;6.40;99.90;;;;;;4998043;28;20124;-70
2022/05/02 02:38:25;;;;;;;12.00;9.63;;;6.50;99.90;;;;;;4996807;28;20033;-70
2022/05/02 02:40:51;;;;;;;11.50;9.23;;;6.40;99.90;;;;;;4962143;28;20049;-69
2022/05/02 02:43:17;;;;;;;12.02;9.63;;;6.40;99.90;;;;;;4962428;28;20050;-73
2022/05/02 02:45:43;;;;;;;12.00;9.70;;;6.40;99.90;;;;;;4978287;28;20049;-71
2022/05/02 02:48:09;;;;;;;11.95;9.55;;;6.40;99.90;;;;;;4958700;28;20059;-69
2022/05/02 02:50:35;;;;;;;14.30;9.40;;;6.40;99.90;;;;;;4992751;28;20669;-70
2022/05/02 02:53:00;;;;;;;13.05;9.90;;;6.30;99.90;;;;;;4978251;28;20042;-70
2022/05/02 02:55:26;;;;;;;14.07;11.50;;;6.30;99.90;;;;;;4977924;28;20050;-70
2022/05/02 02:57:52;;;;;;;13.73;11.35;;;6.20;99.90;;;;;;4994410;28;20035;-70
2022/05/02 03:00:18;;;;;;;17.38;12.90;;;6.10;99.90;;;;;;4961319;28;20043;-71
2022/05/02 03:02:44;;;;;;;16.70;13.02;;;6.20;99.90;;;;;;4974788;28;20050;-70
2022/05/02 03:07:55;;;;;;;16.90;14.70;;;6.10;99.90;;;;;;4975210;28;20059;-70
2022/05/02 03:10:21;;;;;;;17.13;14.52;;;6.20;99.90;;;;;;4974474;28;20043;-70
2022/05/02 03:12:47;;;;;;;17.92;13.52;;;6.20;99.90;;;;;;4994557;28;20115;-70
2022/05/02 03:15:12;;;;;;;16.52;13.48;;;6.10;99.90;;;;;;5010106;28;20482;-69
2022/05/02 03:17:38;;;;;;;16.50;13.77;;;6.10;99.90;;;;;;4993790;28;20042;-71
2022/05/02 03:20:05;;;;;;;15.65;12.95;;;6.00;99.90;;;;;;4979851;28;20078;-70
2022/05/02 03:22:31;;;;;;;14.73;12.07;;;6.10;99.90;;;;;;4974321;28;20047;-70
2022/05/02 03:25:03;;;;;;;19.27;12.85;;;6.10;99.90;;;;;;5090998;28;20506;-70
2022/05/02 03:27:29;;;;;;;14.80;12.25;;;6.00;99.90;;;;;;5090118;28;20365;-70
2022/05/02 03:29:54;;;;;;;14.60;11.77;;;6.00;99.90;;;;;;5072773;28;20198;-68
2022/05/02 03:32:21;;;;;;;15.13;12.50;;;5.90;99.90;;;;;;5089453;28;20044;-68
2022/05/02 03:34:46;;;;;;;12.77;11.38;;;6.00;99.90;;;;;;5090095;28;20106;-69
2022/05/02 03:37:12;;;;;;;15.05;12.05;;;6.00;99.90;;;;;;5089729;28;20044;-69
2022/05/02 03:39:37;;;;;;;15.75;13.20;;;5.80;99.90;;;;;;5089545;28;20040;-69
2022/05/02 03:42:04;;;;;;;17.60;12.05;;;5.80;99.90;;;;;;5089392;28;20104;-69
2022/05/02 03:44:29;;;;;;;13.75;11.77;;;5.80;99.90;;;;;;5088851;28;20052;-69
2022/05/02 03:46:55;;;;;;;15.05;12.38;;;5.80;99.90;;;;;;5089508;28;20046;-69
2022/05/02 03:49:20;;;;;;;13.93;11.77;;;5.90;99.90;;;;;;5089308;28;20082;-69
2022/05/02 03:51:46;;;;;;;14.75;11.88;;;5.90;99.90;;;;;;5072397;28;20040;-69
2022/05/02 03:54:12;;;;;;;16.10;12.18;;;5.80;99.90;;;;;;5072400;28;20131;-69
2022/05/02 03:56:37;;;;;;;16.85;13.20;;;5.80;99.90;;;;;;5089345;28;20058;-69
2022/05/02 03:59:03;;;;;;;15.90;13.43;;;5.70;99.90;;;;;;5089577;28;20040;-69
2022/05/02 04:01:29;;;;;;;16.33;14.32;;;5.60;99.90;;;;;;5089097;28;20109;-70
2022/05/02 04:03:54;;;;;;;19.90;15.57;;;5.70;99.90;;;;;;5089019;28;20071;-69
2022/05/02 04:06:20;;;;;;;19.67;15.85;;;5.70;99.90;;;;;;5089317;28;20043;-70
2022/05/02 04:08:46;;;;;;;21.02;16.70;;;5.70;99.90;;;;;;5071994;28;20377;-69
2022/05/02 04:11:12;;;;;;;18.80;16.35;;;5.80;99.90;;;;;;5088626;28;20054;-70
2022/05/02 04:13:38;;;;;;;20.83;17.10;;;5.70;99.90;;;;;;5089274;28;20127;-70
2022/05/02 04:16:04;;;;;;;21.58;17.02;;;5.80;99.90;;;;;;5089704;28;20392;-69
2022/05/02 04:18:29;;;;;;;18.75;16.70;;;5.70;99.90;;;;;;5088476;28;20494;-69
2022/05/02 04:20:55;;;;;;;18.55;16.13;;;5.70;99.90;;;;;;5088811;28;20138;-69
2022/05/02 04:23:20;;;;;;;18.05;14.80;;;5.60;99.90;;;;;;5088670;28;20108;-70
2022/05/02 04:25:46;;;;;;;19.42;15.10;;;5.60;99.90;;;;;;5088808;28;20098;-68
2022/05/02 04:28:12;;;;;;;17.25;14.40;;;5.70;99.90;;;;;;5072116;28;20040;-68
2022/05/02 04:30:38;;;;;;;16.33;13.60;;;5.80;99.90;;;;;;5088189;28;20445;-69
2022/05/02 04:33:03;;;;;;;16.50;13.50;;;5.60;99.90;;;;;;5088545;28;20040;-67
2022/05/02 04:35:29;;;;;;;16.15;13.18;;;5.70;99.90;;;;;;5063752;28;20036;-69
2022/05/02 04:37:54;;;;;;;19.05;15.23;;;5.60;99.90;;;;;;5075123;28;20490;-69
2022/05/02 04:40:20;;;;;;;19.30;15.93;;;5.70;99.90;;;;;;5074394;28;20044;-69
2022/05/02 04:42:46;;;;;;;18.10;14.77;;;6.00;99.90;;;;;;5074869;28;20045;-69
2022/05/02 04:45:11;;;;;;;18.60;16.20;;;6.40;99.90;;;;;;5074816;28;20037;-69
2022/05/02 04:47:37;;;;;;;20.48;16.05;;;6.70;99.90;;;;;;5074764;28;20037;-69
2022/05/02 04:50:04;;;;;;;19.00;16.17;;;7.10;99.90;;;;;;5074691;28;20047;-70
2022/05/02 04:52:29;;;;;;;21.27;15.10;;;7.60;99.90;;;;;;5074848;28;20043;-69
2022/05/02 04:54:56;;;;;;;19.17;14.23;;;8.00;99.90;;;;;;5058243;28;20044;-69
2022/05/02 04:57:22;;;;;;;16.90;14.68;;;8.50;99.90;;;;;;5056708;28;20041;-68
2022/05/02 04:59:47;;;;;;;16.38;13.63;;;8.70;99.90;;;;;;5059683;28;20040;-70
2022/05/02 05:02:13;;;;;;;15.10;12.00;;;9.20;99.90;;;;;;5056309;28;20037;-70
2022/05/02 05:04:39;;;;;;;15.13;11.85;;;9.40;99.90;;;;;;5053574;28;20044;-70
2022/05/02 05:07:05;;;;;;;16.33;10.55;;;9.90;99.90;;;;;;5054708;28;20116;-70
2022/05/02 05:09:31;;;;;;;15.98;10.15;;;10.10;99.90;;;;;;5056616;28;20072;-69
2022/05/02 05:12:25;;;;;;;13.82;10.70;;;10.50;99.90;;;;;;5056546;28;20069;-70
2022/05/02 05:18:32;;;;;;;14.18;10.45;;;10.60;99.90;;;;;;5053688;28;20043;-71
2022/05/02 05:21:21;;;;;;;15.82;9.55;;;10.40;99.90;;;;;;5056962;28;20049;-69
2022/05/02 05:24:37;;;;;;;10.95;9.60;;;10.80;99.90;;;;;;5057836;28;20041;-69
2022/05/02 05:27:30;;;;;;;15.02;9.95;;;11.30;99.90;;;;;;5057365;28;20045;-70
2022/05/02 05:29:56;;;;;;;12.27;10.02;;;11.10;99.90;;;;;;5066943;28;20052;-68
2022/05/02 05:32:35;;;;;;;13.25;10.40;;;11.40;99.90;;;;;;5054108;28;20419;-70
2022/05/02 05:35:08;;;;;;;12.70;10.23;;;11.80;99.90;;;;;;5054262;28;20048;-69
2022/05/02 05:37:48;;;;;;;13.50;9.13;;;12.50;99.90;;;;;;5041807;28;20079;-68
2022/05/02 05:40:35;;;;;;;11.38;9.75;;;12.90;99.90;;;;;;5073389;28;20051;-68
2022/05/02 05:43:38;;;;;;;13.18;9.82;;;13.10;99.90;;;;;;5064478;28;20120;-67
2022/05/02 05:46:39;;;;;;;14.57;9.20;;;13.30;99.90;;;;;;5054268;28;20338;-67
2022/05/02 05:49:17;;;;;;;11.82;8.80;;;13.80;99.90;;;;;;5072742;28;20051;-68
2022/05/02 05:51:48;;;;;;;12.05;8.70;;;14.40;99.90;;;;;;5056347;28;20090;-69
2022/05/02 05:54:55;;;;;;;12.55;8.75;;;15.20;99.90;;;;;;5053987;28;20041;-67
2022/05/02 05:57:46;;;;;;;10.18;8.15;;;15.10;99.90;;;;;;5072352;28;20154;-67
2022/05/02 06:00:13;;;;;;;10.65;9.00;;;15.70;99.90;;;;;;5073105;28;20829;-67
2022/05/02 06:02:50;;;;;;;11.23;8.50;;;15.90;99.90;;;;;;5073506;28;20041;-69
2022/05/02 06:05:17;;;;;;;10.70;8.10;;;15.50;99.90;;;;;;5041466;28;20045;-66
2022/05/02 06:07:46;;;;;;;9.35;8.13;;;15.70;99.90;;;;;;5036025;28;20124;-67
2022/05/02 06:10:14;;;;;;;9.80;7.60;;;15.80;99.90;;;;;;5066855;28;20036;-68
2022/05/02 06:12:42;;;;;;;10.90;8.15;;;16.40;99.90;;;;;;5073869;28;20107;-67
2022/05/02 06:20:43;;;;;;;12.40;8.23;;;16.20;99.90;;;;;;5054832;28;20400;-67
2022/05/02 06:23:13;;;;;;;11.30;8.60;;;16.00;99.90;;;;;;5051320;28;20126;-69
2022/05/02 06:25:39;;;;;;;11.63;8.57;;;16.40;99.90;;;;;;5051523;28;20033;-68
2022/05/02 06:28:06;;;;;;;13.45;8.43;;;16.20;99.90;;;;;;5051570;28;20099;-67
2022/05/02 06:30:35;;;;;;;11.85;9.27;;;16.60;99.90;;;;;;5070942;28;20059;-68
2022/05/02 06:33:08;;;;;;;11.35;8.68;;;16.50;99.10;;;;;;5076072;28;20115;-68
2022/05/02 06:35:44;;;;;;;12.38;9.05;;;16.60;99.60;;;;;;5076295;28;20365;-68
2022/05/02 06:38:31;;;;;;;11.60;9.38;;;16.50;99.60;;;;;;5075432;28;20353;-69
2022/05/02 06:41:10;;;;;;;11.90;8.70;;;17.10;98.50;;;;;;5055322;28;20032;-68
2022/05/02 06:43:52;;;;;;;10.95;8.52;;;16.80;98.70;;;;;;5072676;28;20513;-67
2022/05/02 06:46:20;;;;;;;12.18;8.30;;;17.00;98.70;;;;;;5072653;28;20048;-67
2022/05/02 06:48:51;;;;;;;14.07;8.40;;;17.50;98.40;;;;;;5089980;28;20046;-67
2022/05/02 06:51:30;;;;;;;9.38;8.07;;;17.50;98.20;;;;;;5072352;28;20094;-68
2022/05/02 06:54:23;;;;;;;9.45;8.18;;;17.10;98.00;;;;;;5072593;28;20052;-65
2022/05/02 06:57:07;;;;;;;13.18;8.82;;;17.20;98.20;;;;;;5072594;28;20040;-68
2022/05/02 06:59:38;;;;;;;11.95;8.23;;;17.10;98.50;;;;;;5071678;28;20036;-68
2022/05/02 07:02:32;;;;;;;13.20;8.05;;;17.20;99.00;;;;;;5072276;28;20048;-68
2022/05/02 07:05:04;;;;;;;10.50;8.63;;;17.70;98.40;;;;;;5072184;28;20071;-69
2022/05/02 07:07:52;;;;;;;11.30;8.68;;;17.40;98.30;;;;;;5072347;28;20047;-68
2022/05/02 07:10:23;;;;;;;11.48;8.48;;;17.40;98.40;;;;;;5055498;28;20041;-68
2022/05/02 07:13:17;;;;;;;10.35;9.27;;;17.60;98.20;;;;;;5055975;28;20419;-69
2022/05/02 07:15:55;;;;;;;9.57;8.15;;;17.30;98.20;;;;;;5051593;28;20036;-68
2022/05/02 07:18:39;;;;;;;14.70;9.52;;;17.50;98.40;;;;;;5056619;28;20062;-68
2022/05/02 07:21:36;;;;;;;10.13;8.27;;;17.70;97.50;;;;;;5070126;28;20065;-67
2022/05/02 07:24:26;;;;;;;10.73;8.45;;;17.70;97.70;;;;;;5040615;28;20118;-67
2022/05/02 07:27:04;;;;;;;11.10;8.38;;;17.80;97.30;;;;;;5068719;28;20045;-67
2022/05/02 07:29:32;;;;;;;11.73;8.73;;;17.20;98.10;;;;;;5060014;28;20033;-68
2022/05/02 07:32:01;;;;;;;12.40;8.95;;;16.50;98.80;;;;;;5071940;28;20055;-68
2022/05/02 07:34:29;;;;;;;10.40;8.40;;;16.30;99.40;;;;;;5071986;28;20487;-68
2022/05/02 07:37:02;;;;;;;11.00;8.18;;;16.00;99.90;;;;;;5063037;28;20041;-69
2022/05/02 07:39:30;;;;;;;10.38;8.02;;;15.90;99.90;;;;;;5079280;28;20067;-67
2022/05/02 07:42:00;;;;;;;13.73;8.70;;;15.90;99.90;;;;;;5055303;28;20059;-68
2022/05/02 07:44:31;;;;;;;13.02;8.63;;;15.60;99.90;;;;;;5055267;28;20048;-68
2022/05/02 07:47:00;;;;;;;11.40;8.73;;;15.50;99.90;;;;;;5071737;28;20101;-68
2022/05/02 07:49:28;;;;;;;11.43;8.45;;;15.50;99.90;;;;;;5071364;28;20047;-68
2022/05/02 07:51:56;;;;;;;10.93;8.45;;;15.50;99.90;;;;;;5055060;28;20469;-67
2022/05/02 07:54:25;;;;;;;13.27;8.95;;;15.60;99.90;;;;;;5072034;28;20577;-68
2022/05/02 07:56:55;;;;;;;10.07;7.07;;;15.50;99.90;;;;;;5071867;28;20441;-68
2022/05/02 07:59:24;;;;;;;12.38;8.35;;;15.70;99.40;;;;;;5071543;28;20049;-68
2022/05/02 08:01:51;;;;;;;13.13;8.98;;;15.50;99.80;;;;;;5063689;28;20075;-68
2022/05/02 08:04:17;;;;;;;10.45;8.43;;;15.40;99.90;;;;;;5055187;28;20067;-67
2022/05/02 08:06:59;;;;;;;12.15;8.90;;;15.30;99.90;;;;;;5051724;28;20086;-68
2022/05/02 08:09:49;;;;;;;12.65;9.18;;;15.10;99.90;;;;;;5058728;28;20461;-67
2022/05/02 08:12:33;;;;;;;11.93;8.13;;;15.20;99.90;;;;;;5075733;28;20076;-67
2022/05/02 08:15:08;;;;;;;11.85;8.00;;;15.20;99.90;;;;;;5075300;28;20044;-68
2022/05/02 08:17:34;;;;;;;10.57;8.38;;;15.40;99.90;;;;;;5075499;28;20044;-68
2022/05/02 08:20:37;;;;;;;12.55;8.27;;;15.30;99.90;;;;;;5074927;28;20381;-69
2022/05/02 08:29:53;;;;;;;13.13;8.30;;;15.30;99.90;;;;;;5073045;28;20041;-68
2022/05/02 08:32:52;;;;;;;13.55;7.93;;;15.30;99.90;;;;;;5058665;28;20079;-68
2022/05/02 08:35:25;;;;;;;10.05;8.93;;;15.30;99.90;;;;;;5075035;28;20041;-68
2022/05/02 08:38:00;;;;;;;18.83;7.90;;;15.10;99.90;;;;;;5075345;28;20372;-68
2022/05/02 08:40:25;;;;;;;10.25;7.28;;;15.10;99.90;;;;;;5074306;28;20055;-68
2022/05/02 08:43:09;;;;;;;10.43;7.60;;;15.20;98.70;;;;;;5058057;28;20036;-68
2022/05/02 08:46:00;;;;;;;9.60;7.45;;;15.30;98.40;;;;;;5068039;28;20182;-69
2022/05/02 08:48:44;;;;;;;10.63;6.97;;;15.50;98.50;;;;;;5054850;28;20095;-67
2022/05/02 08:51:22;;;;;;;;;;;15.20;97.10;;;;;;5055056;28;20393;-68
2022/05/02 08:54:04;;;;;;;12.63;7.78;;;15.50;96.60;;;;;;5054839;28;19920;-67
2022/05/02 08:57:02;;;;;;;9.65;7.25;;;15.60;97.70;;;;;;5055052;28;20051;-69
2022/05/02 09:00:07;;;;;;;9.57;7.07;;;15.60;97.80;;;;;;5039697;28;20129;-69
2022/05/02 09:02:59;;;;;;;11.70;7.40;;;15.80;96.90;;;;;;5074231;28;20055;-68
2022/05/02 09:05:45;;;;;;;10.63;6.75;;;15.80;96.10;;;;;;5074598;28;20040;-67
2022/05/02 09:08:38;;;;;;;9.65;6.72;;;15.80;96.70;;;;;;5074273;28;20054;-68
2022/05/02 09:11:39;;;;;;;9.73;6.00;;;16.20;95.30;;;;;;5074425;28;20465;-67
2022/05/02 09:14:43;;;;;;;8.65;5.82;;;16.10;95.00;;;;;;5057968;28;20458;-67
2022/05/02 09:17:18;;;;;;;9.05;6.75;;;15.90;95.60;;;;;;5074481;28;20381;-67
2022/05/02 09:19:49;;;;;;;9.15;5.90;;;16.20;95.50;;;;;;5073931;28;20040;-68
2022/05/02 09:22:32;;;;;;;8.15;4.80;;;16.40;94.20;;;;;;5074249;28;20440;-67
2022/05/02 09:25:12;;;;;;;7.85;5.20;;;16.50;94.40;;;;;;5074238;28;20057;-67
2022/05/02 09:27:56;;;;;;;7.15;5.18;;;16.20;94.00;;;;;;5073738;28;20241;-66
2022/05/02 09:31:01;;;;;;;11.00;6.00;;;16.10;94.00;;;;;;5073593;28;20043;-68
2022/05/02 09:33:36;;;;;;;9.38;6.15;;;15.90;94.30;;;;;;5074099;28;20119;-67
2022/05/02 09:36:35;;;;;;;8.90;5.95;;;16.00;95.10;;;;;;5057430;28;20052;-68
2022/05/02 09:39:03;;;;;;;6.85;5.55;;;15.90;94.60;;;;;;5073597;28;20048;-67
2022/05/02 09:42:04;;;;;;;7.88;5.57;;;16.10;95.00;;;;;;5071941;28;20044;-66
2022/05/02 09:50:43;;;;;;;9.30;5.82;;;17.00;93.70;;;;;;5055877;28;20352;-65
2022/05/02 09:53:44;;;;;;;7.95;5.68;;;16.90;93.60;;;;;;5052790;28;20404;-65
2022/05/02 09:56:46;;;;;;;6.85;4.82;;;17.10;93.30;;;;;;5052368;28;20311;-67
2022/05/02 09:59:21;;;;;;;6.88;5.18;;;17.20;92.70;;;;;;5040843;28;20131;-67
2022/05/02 10:01:50;;;;;;;7.38;5.00;;;17.20;92.30;;;;;;5073766;28;20079;-67
2022/05/02 10:04:49;;;;;;;7.45;4.63;;;17.00;92.50;;;;;;5073502;28;20055;-67
2022/05/02 10:07:18;;;;;;;7.78;4.15;;;16.90;92.20;;;;;;5073405;28;20072;-68
2022/05/02 10:10:01;;;;;;;7.97;5.20;;;17.10;92.30;;;;;;5072761;28;20365;-68
2022/05/02 10:12:43;;;;;;;7.25;4.97;;;17.30;91.60;;;;;;5073412;28;20132;-67
2022/05/02 10:15:27;;;;;;;7.82;4.82;;;17.00;91.20;;;;;;5058448;28;20040;-68
2022/05/02 10:18:18;;;;;;;9.30;5.50;;;16.90;92.20;;;;;;5073018;28;20044;-68
2022/05/02 10:21:01;;;;;;;8.88;6.20;;;17.10;92.30;;;;;;5072568;28;20048;-68
2022/05/02 10:23:58;;;;;;;9.23;6.10;;;17.50;91.80;;;;;;5056168;28;20063;-67
2022/05/02 10:26:32;;;;;;;8.23;5.65;;;17.50;92.10;;;;;;5055542;28;20283;-68
2022/05/02 10:29:16;;;;;;;7.50;5.78;;;17.40;92.50;;;;;;5065323;28;20047;-67
2022/05/02 10:31:49;;;;;;;;;;;17.40;91.90;;;;;;5072137;28;20040;-69
2022/05/02 10:34:20;;;;;;;10.82;5.78;;;17.30;92.30;;;;;;5072050;28;20458;-68
2022/05/02 10:36:50;;;;;;;9.00;5.40;;;17.40;92.40;;;;;;5073088;28;20048;-67
2022/05/02 10:39:50;;;;;;;7.97;5.22;;;17.50;92.10;;;;;;5071205;28;20044;-67
2022/05/02 10:42:20;;;;;;;7.80;5.00;;;17.50;91.00;;;;;;5071982;28;20121;-67
2022/05/02 10:45:01;;;;;;;7.60;5.00;;;17.60;90.70;;;;;;5072140;28;20097;-67
2022/05/02 10:47:38;;;;;;;6.90;4.82;;;17.20;90.10;;;;;;5072547;28;20148;-67
2022/05/02 10:50:20;;;;;;;6.60;4.63;;;17.40;90.00;;;;;;5072333;28;20051;-68
2022/05/02 10:52:46;;;;;;;7.05;5.30;;;17.50;90.70;;;;;;5072554;28;20450;-68
2022/05/02 10:55:31;;;;;;;7.53;4.90;;;17.70;90.40;;;;;;5056058;28;20127;-68
2022/05/02 10:58:03;;;;;;;8.00;5.60;;;17.70;90.60;;;;;;5072480;28;20130;-67
2022/05/02 11:00:31;;;;;;;7.45;5.07;;;17.40;90.20;;;;;;5072123;28;20059;-67
2022/05/02 11:03:15;;;;;;;6.25;4.28;;;17.80;88.10;;;;;;5072010;28;20036;-68
2022/05/02 11:06:03;;;;;;;6.40;4.80;;;17.80;88.30;;;;;;5072224;28;20287;-68
2022/05/02 11:08:58;;;;;;;8.35;5.00;;;17.70;88.40;;;;;;5072488;28;20036;-67
2022/05/02 11:11:45;;;;;;;7.78;4.72;;;17.40;88.90;;;;;;5050759;28;20062;-67
2022/05/02 11:14:36;;;;;;;9.30;5.20;;;17.40;88.00;;;;;;5052616;28;20064;-67
2022/05/02 11:17:34;;;;;;;9.18;5.75;;;17.60;90.00;;;;;;5052308;28;20049;-67
2022/05/02 11:23:06;;;;;;;9.68;5.80;;;18.00;88.40;;;;;;5072007;28;20051;-66
2022/05/02 11:25:44;;;;;;;7.20;5.20;;;17.60;88.80;;;;;;5072126;28;20076;-67
2022/05/02 11:28:40;;;;;;;9.48;6.35;;;17.60;89.50;;;;;;5072599;28;20473;-67
2022/05/02 11:31:25;;;;;;;9.50;5.65;;;17.80;89.60;;;;;;5072054;28;20107;-67
2022/05/02 11:34:02;;;;;;;7.70;5.90;;;18.00;90.30;;;;;;5072314;28;20047;-67
2022/05/02 11:36:33;;;;;;;7.47;5.22;;;18.30;89.10;;;;;;5055512;28;20048;-67
2022/05/02 11:39:05;;;;;;;8.82;5.35;;;18.20;89.20;;;;;;5071628;28;20044;-67
2022/05/02 11:41:32;;;;;;;9.15;5.38;;;18.30;89.10;;;;;;5072273;28;20040;-67
2022/05/02 11:44:13;;;;;;;8.07;4.95;;;18.30;90.10;;;;;;5055404;28;20048;-67
2022/05/02 11:47:00;;;;;;;7.28;4.90;;;18.40;90.00;;;;;;5075648;28;20423;-67
2022/05/02 11:49:50;;;;;;;7.35;4.80;;;18.60;88.20;;;;;;5076086;28;20066;-66
2022/05/02 11:52:28;;;;;;;8.32;6.13;;;18.50;88.30;;;;;;5059769;28;20056;-66
2022/05/02 11:54:57;;;;;;;7.13;5.03;;;18.50;87.40;;;;;;5076247;28;20037;-67
2022/05/02 11:57:29;;;;;;;7.50;5.28;;;18.50;88.00;;;;;;5059406;28;20128;-67
2022/05/02 12:00:11;;;;;;;8.30;5.47;;;18.60;87.20;;;;;;5075421;28;20052;-65
2022/05/02 12:02:37;;;;;;;10.35;5.43;;;18.70;87.00;;;;;;5075916;28;20442;-66
2022/05/02 12:05:16;;;;;;;7.32;5.43;;;18.80;86.20;;;;;;5075774;28;20040;-66
2022/05/02 12:07:48;;;;;;;8.63;5.45;;;18.70;87.90;;;;;;5075789;28;20048;-67
2022/05/02 12:10:15;;;;;;;10.60;5.90;;;18.80;88.00;;;;;;5075313;28;20037;-67
2022/05/02 12:12:53;;;;;;;9.05;5.45;;;18.40;88.50;;;;;;5075700;28;20570;-67
2022/05/02 12:15:19;;;;;;;9.77;6.53;;;18.50;88.50;;;;;;5075999;28;20040;-66
2022/05/02 12:17:51;;;;;;;9.30;6.25;;;18.40;88.70;;;;;;5075843;28;20052;-67
2022/05/02 12:20:32;;;;;;;10.52;5.90;;;18.40;89.10;;;;;;5058728;28;20058;-67
2022/05/02 12:23:11;;;;;;;8.35;6.03;;;18.50;89.60;;;;;;5058468;28;20749;-68
2022/05/02 12:26:14;;;;;;;8.52;6.03;;;18.50;88.20;;;;;;5075358;28;20044;-67
2022/05/02 12:28:48;;;;;;;8.18;5.97;;;18.80;88.20;;;;;;5076308;28;20101;-67
2022/05/02 12:31:32;;;;;;;7.70;6.03;;;18.90;88.70;;;;;;5075072;28;20048;-67
2022/05/02 12:34:11;;;;;;;7.65;5.55;;;19.00;88.70;;;;;;5076556;28;20135;-66
2022/05/02 12:36:43;;;;;;;10.02;6.30;;;19.10;87.80;;;;;;5075503;28;20040;-66
2022/05/02 12:39:13;;;;;;;9.05;5.85;;;19.20;88.00;;;;;;5058518;28;20098;-67
2022/05/02 12:41:49;;;;;;;7.88;6.15;;;19.10;88.40;;;;;;5075422;28;20045;-67
2022/05/02 12:44:17;;;;;;;9.23;6.25;;;19.10;88.30;;;;;;5043151;28;20446;-66
2022/05/02 12:46:48;;;;;;;8.23;6.15;;;18.80;89.10;;;;;;5058164;28;20123;-66
2022/05/02 12:49:32;;;;;;;9.15;6.22;;;18.30;88.50;;;;;;5074658;28;20115;-66
2022/05/02 12:51:57;;;;;;;;;;;17.90;89.60;;;;;;5075820;28;20069;-66
2022/05/02 12:54:26;;;;;;;8.60;6.38;;;17.90;90.50;;;;;;5074919;28;20288;-67
2022/05/02 13:02:34;;;;;;;8.15;6.20;;;18.30;90.30;;;;;;5074688;28;20186;-67
2022/05/02 13:05:04;;;;;;;8.63;5.40;;;18.50;90.00;;;;;;5057922;28;20052;-67
2022/05/02 13:07:40;;;;;;;10.65;6.45;;;18.90;90.10;;;;;;5074644;28;20044;-66
2022/05/02 13:10:18;;;;;;;8.25;5.90;;;19.20;89.60;;;;;;5057570;28;20111;-67
2022/05/02 13:13:00;;;;;;;7.15;5.68;;;19.50;88.90;;;;;;5074638;28;20233;-67
2022/05/02 13:15:31;;;;;;;8.70;6.22;;;19.90;89.20;;;;;;5057872;28;20469;-67
2022/05/02 13:18:07;;;;;;;7.35;5.78;;;20.10;88.00;;;;;;5074376;28;20164;-66
2022/05/02 13:20:33;;;;;;;7.10;5.35;;;20.20;87.30;;;;;;5073913;28;20257;-66
2022/05/02 13:23:13;;;;;;;7.73;5.57;;;20.00;88.10;;;;;;5057168;28;20048;-66
2022/05/02 13:26:12;;;;;;;10.63;5.88;;;19.80;87.70;;;;;;5074760;28;20171;-67
2022/05/02 13:29:03;;;;;;;10.00;5.60;;;19.50;87.70;;;;;;5074393;28;20052;-68
2022/05/02 13:31:56;;;;;;;8.63;5.70;;;19.00;87.70;;;;;;5054196;28;20339;-67
2022/05/02 13:34:33;;;;;;;8.32;5.20;;;18.70;89.50;;;;;;5054370;28;20045;-66
2022/05/02 13:37:31;;;;;;;11.13;6.03;;;18.60;89.80;;;;;;5054231;28;20037;-66
2022/05/02 13:40:18;;;;;;;7.95;5.43;;;18.60;89.70;;;;;;5083849;28;20040;-68
2022/05/02 13:42:51;;;;;;;9.77;5.90;;;18.50;89.90;;;;;;5074131;28;20040;-66
2022/05/02 13:45:19;;;;;;;9.40;5.85;;;18.60;89.70;;;;;;5073928;28;20114;-67
2022/05/02 13:47:54;;;;;;;9.30;5.82;;;19.00;88.20;;;;;;5073630;28;20132;-68
2022/05/02 13:50:26;;;;;;;8.13;4.95;;;19.20;87.90;;;;;;5073590;28;20119;-68
2022/05/02 13:53:05;;;;;;;9.50;5.90;;;19.20;88.90;;;;;;5073676;28;20036;-67